This is the latest recevied weather packets stored in our database for station/object KE8GJZ-1. If no packets are shown the sender has not sent any weather packets the latest 10 day(s).
| Time | Temp. | Humidity | Pressure | Rain* | Wind** | Luminosity | Snow |
|---|---|---|---|---|---|---|---|
| 1777481214 | 11.67° C | 79% | 1009.4 hPa | 0 mm | - | 265 W/m² | - |
| 1777480607 | 11.11° C | 84% | 1009.5 hPa | 0 mm | - | 448 W/m² | - |
| 1777480304 | 10.56° C | 85% | 1009.5 hPa | 0 mm | - | 267 W/m² | - |
| 1777479091 | 10° C | 89% | 1009.9 hPa | 0 mm | - | 158 W/m² | - |
| 1777478788 | 10° C | 89% | 1010.1 hPa | 0 mm | - | 135 W/m² | - |
| 1777477270 | 9.44° C | 92% | 1010.4 hPa | 0 mm | - | 94 W/m² | - |
| 1777475752 | 9.44° C | 93% | 1010.4 hPa | 0 mm | - | 123 W/m² | - |
| 1777471806 | 8.33° C | 99% | 1010.7 hPa | 0 mm | - | 65 W/m² | - |
| 1777471503 | 8.33° C | 99% | 1010.8 hPa | 0 mm | - | 65 W/m² | - |
| 1777469986 | 8.33° C | 99% | 1010.8 hPa | 0 mm | - | 36 W/m² | - |
| 1777469377 | 8.33° C | 99% | 1010.8 hPa | 0 mm | - | 54 W/m² | - |
| 1777469073 | 8.33° C | 99% | 1010.6 hPa | 0 mm | - | 57 W/m² | - |
| 1777468773 | 8.33° C | 99% | 1010.8 hPa | 0 mm | - | 66 W/m² | - |
| 1777468469 | 8.33° C | 99% | 1010.9 hPa | 0 mm | - | 60 W/m² | - |
| 1777468166 | 8.33° C | 99% | 1011 hPa | 0 mm | - | 37 W/m² | - |
| 1777466648 | 7.78° C | 99% | 1011.1 hPa | 0 mm | - | 43 W/m² | - |
| 1777466344 | 7.78° C | 99% | 1011.1 hPa | 0 mm | - | 32 W/m² | - |
| 1777466040 | 7.78° C | 99% | 1011.2 hPa | 0 mm | - | 31 W/m² | - |
| 1777465736 | 7.78° C | 99% | 1011.1 hPa | 0 mm | - | 29 W/m² | - |
| 1777465432 | 8.33° C | 99% | 1011.1 hPa | 0 mm | - | 27 W/m² | - |
| 1777465131 | 8.33° C | 99% | 1011.3 hPa | 0 mm | - | 25 W/m² | - |
| 1777464827 | 7.78° C | 99% | 1011.2 hPa | 0 mm | - | 30 W/m² | - |
| 1777464522 | 7.78° C | 99% | 1011.4 hPa | 0 mm | - | 23 W/m² | - |
| 1777464219 | 7.78° C | 99% | 1011.6 hPa | 0 mm | - | 18 W/m² | - |
| 1777463913 | 7.78° C | 99% | 1011.5 hPa | 0 mm | - | 19 W/m² | - |
* Rain latest hour (hover to see other rain measurements)
** Current wind speed in m/s (hover to see current wind gust speed)